PWSweather.com
Personal Weather Stations
Station Observations
SHAHALMS1
Eftra, Falkenberg, HA

EftraFalkenberg, HA

Lat: 56.85, Lon: 12.65

Elevation: 140

Station Type:

http://hem.passagen.se/risarp101

High Low Average
Temperature 55.2°F12.9°C 41.2°F5.1°C 51.2°F10.7°C
Dew Point 53.2°F11.8°C 35.8°F2.1°C 48.1°F8.9°C
Winds 14.3 mph 23.0 kmh Calm Calm 7.0 mph SSW11.3 kmh SSW
Wind Gusts 32.6 mph52.5 kmh -- 15.0 mph24.1 kmh
Humidity 94% 81% 89%
Pressure 30.01 in1016.3 mb 29.77 in1008.1 mb -
Precipitation 0.05 in1.3 mm - -
Hour Temp Dew Point Humidity Winds Wind Gusts Pressure Precip Precip Rate Daily Precip Total
12:00 AM 42.4°F5.8°C 37.0°F2.8°C 81% Calm Calm -- 29.98 in1015.2 mb 0.00 in0.0 mm 0.00 in0.0 mm 0.00 in0.0 mm
12:15 AM 42.8°F6.0°C 37.7°F3.2°C 82% Calm Calm -- 29.95 in1014.2 mb 0.00 in0.0 mm 0.00 in0.0 mm 0.00 in0.0 mm
12:30 AM 42.4°F5.8°C 37.0°F2.8°C 81% Calm Calm -- 29.95 in1014.2 mb 0.00 in0.0 mm 0.00 in0.0 mm 0.00 in0.0 mm
12:45 AM 42.3°F5.7°C 37.2°F2.9°C 82% Calm Calm -- 29.98 in1015.2 mb 0.00 in0.0 mm 0.00 in0.0 mm 0.00 in0.0 mm
01:00 AM 42.4°F5.8°C 37.3°F2.9°C 82% Calm Calm -- 29.95 in1014.2 mb 0.00 in0.0 mm 0.00 in0.0 mm 0.00 in0.0 mm
01:15 AM 42.8°F6.0°C 38.0°F3.3°C 83% Calm Calm -- 29.98 in1015.2 mb 0.00 in0.0 mm 0.00 in0.0 mm 0.00 in0.0 mm
01:30 AM 43.2°F6.2°C 38.3°F3.5°C 83% Calm Calm -- 29.98 in1015.2 mb 0.00 in0.0 mm 0.00 in0.0 mm 0.00 in0.0 mm
01:45 AM 43.0°F6.1°C 37.9°F3.3°C 82% Calm Calm -- 29.98 in1015.2 mb 0.00 in0.0 mm 0.00 in0.0 mm 0.00 in0.0 mm
02:00 AM 42.4°F5.8°C 37.3°F2.9°C 82% 0.2 mph E0.3 kmh E 3.2 mph5.1 kmh 29.98 in1015.2 mb 0.00 in0.0 mm 0.00 in0.0 mm 0.00 in0.0 mm
02:15 AM 41.9°F5.5°C 36.5°F2.5°C 81% 1.9 mph ESE3.1 kmh ESE 5.0 mph8.0 kmh 29.98 in1015.2 mb 0.00 in0.0 mm 0.00 in0.0 mm 0.00 in0.0 mm
02:30 AM 41.5°F5.3°C 36.1°F2.3°C 81% Calm Calm -- 29.98 in1015.2 mb 0.00 in0.0 mm 0.00 in0.0 mm 0.00 in0.0 mm
02:45 AM 41.2°F5.1°C 35.8°F2.1°C 81% Calm Calm -- 29.98 in1015.2 mb 0.00 in0.0 mm 0.00 in0.0 mm 0.00 in0.0 mm
03:00 AM 41.5°F5.3°C 36.8°F2.7°C 83% 0.1 mph WSW0.2 kmh WSW 2.5 mph4.0 kmh 29.98 in1015.2 mb 0.00 in0.0 mm 0.00 in0.0 mm 0.00 in0.0 mm
03:15 AM 42.4°F5.8°C 37.9°F3.3°C 84% 0.5 mph SW0.8 kmh SW 2.5 mph4.0 kmh 29.98 in1015.2 mb 0.00 in0.0 mm 0.00 in0.0 mm 0.00 in0.0 mm
03:30 AM 42.3°F5.7°C 37.5°F3.1°C 83% Calm Calm 1.4 mph2.3 kmh 30.01 in1016.3 mb 0.00 in0.0 mm 0.00 in0.0 mm 0.00 in0.0 mm
03:45 AM 42.6°F5.9°C 37.8°F3.2°C 83% Calm Calm -- 29.98 in1015.2 mb 0.00 in0.0 mm 0.00 in0.0 mm 0.00 in0.0 mm
04:00 AM 41.9°F5.5°C 36.8°F2.7°C 82% Calm Calm -- 29.98 in1015.2 mb 0.00 in0.0 mm 0.00 in0.0 mm 0.00 in0.0 mm
04:15 AM 42.1°F5.6°C 37.3°F2.9°C 83% Calm Calm -- 29.98 in1015.2 mb 0.00 in0.0 mm 0.00 in0.0 mm 0.00 in0.0 mm
04:30 AM 43.0°F6.1°C 38.5°F3.6°C 84% 3.7 mph WSW6.0 kmh WSW 7.9 mph12.7 kmh 29.95 in1014.2 mb 0.00 in0.0 mm 0.00 in0.0 mm 0.00 in0.0 mm
04:45 AM 44.2°F6.8°C 40.0°F4.4°C 85% 3.5 mph W5.6 kmh W 6.8 mph10.9 kmh 29.95 in1014.2 mb 0.00 in0.0 mm 0.00 in0.0 mm 0.00 in0.0 mm
05:00 AM 45.5°F7.5°C 41.6°F5.3°C 86% 1.8 mph W2.9 kmh W 5.0 mph8.0 kmh 29.95 in1014.2 mb 0.00 in0.0 mm 0.00 in0.0 mm 0.00 in0.0 mm
05:15 AM 46.0°F7.8°C 42.1°F5.6°C 86% 3.0 mph WSW4.8 kmh WSW 6.8 mph10.9 kmh 29.95 in1014.2 mb 0.00 in0.0 mm 0.00 in0.0 mm 0.00 in0.0 mm
05:30 AM 46.6°F8.1°C 42.9°F6.1°C 87% 3.5 mph WSW5.6 kmh WSW 8.6 mph13.8 kmh 29.95 in1014.2 mb 0.00 in0.0 mm 0.00 in0.0 mm 0.00 in0.0 mm
05:46 AM 47.3°F8.5°C 43.6°F6.4°C 87% 3.5 mph WSW5.6 kmh WSW 8.9 mph14.3 kmh 29.95 in1014.2 mb 0.00 in0.0 mm 0.00 in0.0 mm 0.00 in0.0 mm
06:00 AM 47.7°F8.7°C 44.0°F6.7°C 87% 4.3 mph WSW6.9 kmh WSW 6.8 mph10.9 kmh 29.95 in1014.2 mb 0.00 in0.0 mm 0.00 in0.0 mm 0.00 in0.0 mm
06:15 AM 48.2°F9.0°C 44.8°F7.1°C 88% 3.1 mph WSW5.0 kmh WSW 10.4 mph16.7 kmh 29.95 in1014.2 mb 0.00 in0.0 mm 0.00 in0.0 mm 0.00 in0.0 mm
06:30 AM 48.9°F9.4°C 45.5°F7.5°C 88% 5.4 mph WSW8.7 kmh WSW 11.5 mph18.5 kmh 29.95 in1014.2 mb 0.00 in0.0 mm 0.00 in0.0 mm 0.00 in0.0 mm
06:45 AM 49.3°F9.6°C 45.9°F7.7°C 88% 5.5 mph SW8.9 kmh SW 11.1 mph17.9 kmh 29.95 in1014.2 mb 0.00 in0.0 mm 0.00 in0.0 mm 0.00 in0.0 mm
07:00 AM 49.8°F9.9°C 46.7°F8.2°C 89% 6.3 mph S10.1 kmh S 11.5 mph18.5 kmh 29.95 in1014.2 mb 0.00 in0.0 mm 0.00 in0.0 mm 0.00 in0.0 mm
07:15 AM 50.4°F10.2°C 47.2°F8.4°C 89% 6.3 mph SSW10.1 kmh SSW 12.5 mph20.1 kmh 29.95 in1014.2 mb 0.00 in0.0 mm 0.00 in0.0 mm 0.00 in0.0 mm
07:30 AM 50.7°F10.4°C 47.6°F8.7°C 89% 5.3 mph WSW8.5 kmh WSW 12.2 mph19.6 kmh 29.95 in1014.2 mb 0.00 in0.0 mm 0.00 in0.0 mm 0.00 in0.0 mm
07:45 AM 51.4°F10.8°C 48.6°F9.2°C 90% 7.5 mph SW12.1 kmh SW 12.2 mph19.6 kmh 29.92 in1013.2 mb 0.00 in0.0 mm 0.00 in0.0 mm 0.00 in0.0 mm
08:00 AM 51.8°F11.0°C 49.3°F9.6°C 91% 7.5 mph SW12.1 kmh SW 13.6 mph21.9 kmh 29.95 in1014.2 mb 0.00 in0.0 mm 0.00 in0.0 mm 0.00 in0.0 mm
08:15 AM 52.2°F11.2°C 49.6°F9.8°C 91% 7.9 mph SW12.7 kmh SW 19.0 mph30.6 kmh 29.92 in1013.2 mb 0.00 in0.0 mm 0.00 in0.0 mm 0.00 in0.0 mm
08:30 AM 52.5°F11.4°C 50.0°F10.0°C 91% 7.4 mph WSW11.9 kmh WSW 21.1 mph34.0 kmh 29.95 in1014.2 mb 0.00 in0.0 mm 0.00 in0.0 mm 0.00 in0.0 mm
08:45 AM 52.9°F11.6°C 50.3°F10.2°C 91% 8.1 mph SW13.0 kmh SW 16.1 mph25.9 kmh 29.95 in1014.2 mb 0.00 in0.0 mm 0.00 in0.0 mm 0.00 in0.0 mm
09:00 AM 52.9°F11.6°C 50.0°F10.0°C 90% 8.5 mph SW13.7 kmh SW 14.7 mph23.7 kmh 29.95 in1014.2 mb 0.00 in0.0 mm 0.00 in0.0 mm 0.00 in0.0 mm
09:15 AM 52.9°F11.6°C 50.0°F10.0°C 90% 8.2 mph WSW13.2 kmh WSW 17.5 mph28.2 kmh 29.95 in1014.2 mb 0.00 in0.0 mm 0.00 in0.0 mm 0.00 in0.0 mm
09:30 AM 53.2°F11.8°C 50.4°F10.2°C 90% 8.5 mph SW13.7 kmh SW 16.8 mph27.0 kmh 29.95 in1014.2 mb 0.00 in0.0 mm 0.00 in0.0 mm 0.00 in0.0 mm
09:45 AM 53.6°F12.0°C 50.7°F10.4°C 90% 7.8 mph SW12.6 kmh SW 15.7 mph25.3 kmh 29.95 in1014.2 mb 0.00 in0.0 mm 0.00 in0.0 mm 0.00 in0.0 mm
10:00 AM 53.6°F12.0°C 50.7°F10.4°C 90% 8.3 mph WSW13.4 kmh WSW 17.2 mph27.7 kmh 29.95 in1014.2 mb 0.00 in0.0 mm 0.00 in0.0 mm 0.00 in0.0 mm
10:15 AM 53.6°F12.0°C 50.7°F10.4°C 90% 8.0 mph WSW12.9 kmh WSW 16.5 mph26.6 kmh 29.95 in1014.2 mb 0.00 in0.0 mm 0.00 in0.0 mm 0.00 in0.0 mm
10:30 AM 53.8°F12.1°C 50.9°F10.5°C 90% 7.7 mph SW12.4 kmh SW 12.9 mph20.8 kmh 29.95 in1014.2 mb 0.00 in0.0 mm 0.00 in0.0 mm 0.00 in0.0 mm
10:45 AM 54.0°F12.2°C 51.1°F10.6°C 90% 7.8 mph SSW12.6 kmh SSW 17.2 mph27.7 kmh 29.92 in1013.2 mb 0.00 in0.0 mm 0.00 in0.0 mm 0.00 in0.0 mm
11:00 AM 54.3°F12.4°C 51.4°F10.8°C 90% 7.9 mph SSW12.7 kmh SSW 15.7 mph25.3 kmh 29.95 in1014.2 mb 0.00 in0.0 mm 0.00 in0.0 mm 0.00 in0.0 mm
11:15 AM 54.5°F12.5°C 51.6°F10.9°C 90% 8.9 mph SW14.3 kmh SW 20.8 mph33.5 kmh 29.92 in1013.2 mb 0.00 in0.0 mm 0.00 in0.0 mm 0.00 in0.0 mm
11:30 AM 54.5°F12.5°C 51.3°F10.7°C 89% 7.8 mph SW12.6 kmh SW 16.8 mph27.0 kmh 29.92 in1013.2 mb 0.00 in0.0 mm 0.00 in0.0 mm 0.00 in0.0 mm
11:45 AM 54.3°F12.4°C 51.1°F10.6°C 89% 8.0 mph SSW12.9 kmh SSW 15.4 mph24.8 kmh 29.92 in1013.2 mb 0.00 in0.0 mm 0.00 in0.0 mm 0.00 in0.0 mm
12:00 PM 54.3°F12.4°C 51.1°F10.6°C 89% 7.4 mph SW11.9 kmh SW 15.4 mph24.8 kmh 29.89 in1012.2 mb 0.00 in0.0 mm 0.00 in0.0 mm 0.00 in0.0 mm
12:15 PM 54.5°F12.5°C 51.3°F10.7°C 89% 8.6 mph WSW13.8 kmh WSW 20.0 mph32.2 kmh 29.92 in1013.2 mb 0.00 in0.0 mm 0.00 in0.0 mm 0.00 in0.0 mm
12:30 PM 54.5°F12.5°C 51.3°F10.7°C 89% 9.5 mph WSW15.3 kmh WSW 17.5 mph28.2 kmh 29.92 in1013.2 mb 0.00 in0.0 mm 0.00 in0.0 mm 0.00 in0.0 mm
12:45 PM 54.5°F12.5°C 51.3°F10.7°C 89% 8.8 mph SW14.2 kmh SW 20.0 mph32.2 kmh 29.92 in1013.2 mb 0.00 in0.0 mm 0.00 in0.0 mm 0.00 in0.0 mm
01:00 PM 54.5°F12.5°C 51.3°F10.7°C 89% 9.3 mph SSW15.0 kmh SSW 24.7 mph39.8 kmh 29.92 in1013.2 mb 0.00 in0.0 mm 0.00 in0.0 mm 0.00 in0.0 mm
01:15 PM 54.5°F12.5°C 51.3°F10.7°C 89% 10.2 mph SSW16.4 kmh SSW 21.5 mph34.6 kmh 29.92 in1013.2 mb 0.00 in0.0 mm 0.00 in0.0 mm 0.00 in0.0 mm
01:30 PM 54.3°F12.4°C 50.8°F10.4°C 88% 9.1 mph SSW14.6 kmh SSW 24.3 mph39.1 kmh 29.89 in1012.2 mb 0.00 in0.0 mm 0.00 in0.0 mm 0.00 in0.0 mm
01:46 PM 54.3°F12.4°C 50.8°F10.4°C 88% 12.9 mph WSW20.8 kmh WSW 19.7 mph31.7 kmh 29.89 in1012.2 mb 0.00 in0.0 mm 0.00 in0.0 mm 0.00 in0.0 mm
01:47 PM 54.3°F12.4°C 50.8°F10.4°C 88% 11.3 mph WSW18.2 kmh WSW 19.7 mph31.7 kmh 29.89 in1012.2 mb 0.00 in0.0 mm 0.00 in0.0 mm 0.00 in0.0 mm
01:48 PM 54.3°F12.4°C 50.8°F10.4°C 88% 10.2 mph SW16.4 kmh SW 19.7 mph31.7 kmh 29.89 in1012.2 mb 0.00 in0.0 mm 0.00 in0.0 mm 0.00 in0.0 mm
01:49 PM 54.3°F12.4°C 50.8°F10.4°C 88% 9.6 mph SW15.4 kmh SW 19.7 mph31.7 kmh 29.89 in1012.2 mb 0.00 in0.0 mm 0.00 in0.0 mm 0.00 in0.0 mm
02:00 PM 54.1°F12.3°C 50.7°F10.4°C 88% 9.3 mph SW15.0 kmh SW 20.0 mph32.2 kmh 29.89 in1012.2 mb 0.00 in0.0 mm 0.00 in0.0 mm 0.00 in0.0 mm
02:15 PM 54.1°F12.3°C 50.7°F10.4°C 88% 8.7 mph S14.0 kmh S 22.5 mph36.2 kmh 29.89 in1012.2 mb 0.00 in0.0 mm 0.00 in0.0 mm 0.00 in0.0 mm
02:30 PM 54.1°F12.3°C 50.7°F10.4°C 88% 8.2 mph S13.2 kmh S 23.6 mph38.0 kmh 29.86 in1011.2 mb 0.00 in0.0 mm 0.00 in0.0 mm 0.00 in0.0 mm
02:45 PM 54.1°F12.3°C 50.7°F10.4°C 88% 9.1 mph S14.6 kmh S 17.5 mph28.2 kmh 29.86 in1011.2 mb 0.00 in0.0 mm 0.00 in0.0 mm 0.00 in0.0 mm
03:00 PM 54.1°F12.3°C 50.7°F10.4°C 88% 7.9 mph SSW12.7 kmh SSW 21.1 mph34.0 kmh 29.83 in1010.2 mb 0.00 in0.0 mm 0.00 in0.0 mm 0.00 in0.0 mm
03:15 PM 54.1°F12.3°C 51.0°F10.6°C 89% 8.7 mph SSW14.0 kmh SSW 17.5 mph28.2 kmh 29.86 in1011.2 mb 0.00 in0.0 mm 0.00 in0.0 mm 0.00 in0.0 mm
03:30 PM 54.1°F12.3°C 51.0°F10.6°C 89% 7.0 mph S11.3 kmh S 14.3 mph23.0 kmh 29.86 in1011.2 mb 0.00 in0.0 mm 0.00 in0.0 mm 0.00 in0.0 mm
03:45 PM 54.0°F12.2°C 50.8°F10.4°C 89% 7.2 mph S11.6 kmh S 16.8 mph27.0 kmh 29.86 in1011.2 mb 0.00 in0.0 mm 0.00 in0.0 mm 0.00 in0.0 mm
04:00 PM 54.1°F12.3°C 51.3°F10.7°C 90% 7.8 mph SW12.6 kmh SW 15.4 mph24.8 kmh 29.86 in1011.2 mb 0.00 in0.0 mm 0.00 in0.0 mm 0.00 in0.0 mm
04:15 PM 54.1°F12.3°C 51.6°F10.9°C 91% 8.0 mph S12.9 kmh S 17.2 mph27.7 kmh 29.86 in1011.2 mb 0.00 in0.0 mm 0.00 in0.0 mm 0.00 in0.0 mm
04:30 PM 54.3°F12.4°C 51.7°F10.9°C 91% 10.5 mph S16.9 kmh S 23.3 mph37.5 kmh 29.83 in1010.2 mb 0.00 in0.0 mm 0.00 in0.0 mm 0.00 in0.0 mm
04:45 PM 54.5°F12.5°C 52.2°F11.2°C 92% 9.6 mph SSW15.4 kmh SSW 20.4 mph32.8 kmh 29.83 in1010.2 mb 0.00 in0.0 mm 0.00 in0.0 mm 0.00 in0.0 mm
05:00 PM 54.5°F12.5°C 52.2°F11.2°C 92% 10.6 mph S17.1 kmh S 27.9 mph44.9 kmh 29.83 in1010.2 mb 0.00 in0.0 mm 0.00 in0.0 mm 0.00 in0.0 mm
05:15 PM 54.7°F12.6°C 52.7°F11.5°C 93% 11.4 mph SW18.3 kmh SW 26.1 mph42.0 kmh 29.83 in1010.2 mb 0.00 in0.0 mm 0.00 in0.0 mm 0.00 in0.0 mm
05:30 PM 54.7°F12.6°C 52.7°F11.5°C 93% 10.1 mph SSW16.3 kmh SSW 20.8 mph33.5 kmh 29.83 in1010.2 mb 0.00 in0.0 mm 0.00 in0.0 mm 0.00 in0.0 mm
05:45 PM 54.9°F12.7°C 52.9°F11.6°C 93% 10.4 mph S16.7 kmh S 23.3 mph37.5 kmh 29.83 in1010.2 mb 0.00 in0.0 mm 0.00 in0.0 mm 0.00 in0.0 mm
06:00 PM 54.9°F12.7°C 52.9°F11.6°C 93% 10.7 mph SW17.2 kmh SW 21.1 mph34.0 kmh 29.83 in1010.2 mb 0.00 in0.0 mm 0.00 in0.0 mm 0.00 in0.0 mm
06:15 PM 54.9°F12.7°C 52.9°F11.6°C 93% 9.4 mph SW15.1 kmh SW 19.0 mph30.6 kmh 29.80 in1009.1 mb 0.00 in0.0 mm 0.00 in0.0 mm 0.00 in0.0 mm
06:30 PM 54.9°F12.7°C 52.9°F11.6°C 93% 8.3 mph S13.4 kmh S 15.7 mph25.3 kmh 29.80 in1009.1 mb 0.00 in0.0 mm 0.00 in0.0 mm 0.00 in0.0 mm
06:45 PM 55.0°F12.8°C 53.1°F11.7°C 93% 9.2 mph SSW14.8 kmh SSW 20.8 mph33.5 kmh 29.83 in1010.2 mb 0.00 in0.0 mm 0.00 in0.0 mm 0.00 in0.0 mm
07:00 PM 55.0°F12.8°C 53.1°F11.7°C 93% 11.2 mph S18.0 kmh S 32.6 mph52.5 kmh 29.80 in1009.1 mb 0.00 in0.0 mm 0.00 in0.0 mm 0.00 in0.0 mm
07:15 PM 55.2°F12.9°C 53.2°F11.8°C 93% 11.6 mph SW18.7 kmh SW 21.1 mph34.0 kmh 29.80 in1009.1 mb 0.00 in0.0 mm 0.00 in0.0 mm 0.00 in0.0 mm
07:30 PM 55.2°F12.9°C 53.2°F11.8°C 93% 11.5 mph SW18.5 kmh SW 21.8 mph35.1 kmh 29.80 in1009.1 mb 0.00 in0.0 mm 0.00 in0.0 mm 0.00 in0.0 mm
07:45 PM 55.0°F12.8°C 53.1°F11.7°C 93% 12.6 mph SW20.3 kmh SW 24.7 mph39.8 kmh 29.80 in1009.1 mb 0.00 in0.0 mm 0.00 in0.0 mm 0.00 in0.0 mm
08:00 PM 55.0°F12.8°C 53.1°F11.7°C 93% 12.0 mph SW19.3 kmh SW 22.2 mph35.7 kmh 29.77 in1008.1 mb 0.00 in0.0 mm 0.00 in0.0 mm 0.00 in0.0 mm
08:15 PM 55.0°F12.8°C 53.1°F11.7°C 93% 11.3 mph SW18.2 kmh SW 21.1 mph34.0 kmh 29.80 in1009.1 mb 0.00 in0.0 mm 0.00 in0.0 mm 0.00 in0.0 mm
08:30 PM 55.0°F12.8°C 53.1°F11.7°C 93% 11.3 mph WSW18.2 kmh WSW 24.7 mph39.8 kmh 29.80 in1009.1 mb 0.00 in0.0 mm 0.00 in0.0 mm 0.00 in0.0 mm
08:45 PM 55.0°F12.8°C 53.1°F11.7°C 93% 12.4 mph WSW20.0 kmh WSW 29.7 mph47.8 kmh 29.80 in1009.1 mb 0.00 in0.0 mm 0.00 in0.0 mm 0.00 in0.0 mm
09:00 PM 54.9°F12.7°C 53.2°F11.8°C 94% 12.8 mph WSW20.6 kmh WSW 27.2 mph43.8 kmh 29.80 in1009.1 mb 0.00 in0.0 mm 0.00 in0.0 mm 0.00 in0.0 mm
09:15 PM 54.9°F12.7°C 53.2°F11.8°C 94% 12.3 mph WSW19.8 kmh WSW 20.8 mph33.5 kmh 29.80 in1009.1 mb 0.00 in0.0 mm 0.00 in0.0 mm 0.00 in0.0 mm
09:30 PM 54.7°F12.6°C 53.0°F11.7°C 94% 14.3 mph WSW23.0 kmh WSW 28.3 mph45.5 kmh 29.80 in1009.1 mb 0.00 in0.0 mm 0.00 in0.0 mm 0.00 in0.0 mm
09:47 PM 54.7°F12.6°C 53.0°F11.7°C 94% 11.1 mph W17.9 kmh W 26.5 mph42.6 kmh 29.80 in1009.1 mb 0.00 in0.0 mm 0.00 in0.0 mm 0.00 in0.0 mm
10:00 PM 54.7°F12.6°C 53.0°F11.7°C 94% 10.9 mph W17.5 kmh W 21.1 mph34.0 kmh 29.80 in1009.1 mb 0.00 in0.0 mm 0.00 in0.0 mm 0.00 in0.0 mm
10:15 PM 54.7°F12.6°C 53.0°F11.7°C 94% 10.4 mph W16.7 kmh W 20.0 mph32.2 kmh 29.80 in1009.1 mb 0.00 in0.0 mm 0.00 in0.0 mm 0.00 in0.0 mm
10:30 PM 54.9°F12.7°C 53.2°F11.8°C 94% 10.5 mph W16.9 kmh W 19.3 mph31.1 kmh 29.80 in1009.1 mb 0.00 in0.0 mm 0.00 in0.0 mm 0.00 in0.0 mm
10:45 PM 54.9°F12.7°C 53.2°F11.8°C 94% 10.4 mph W16.7 kmh W 23.6 mph38.0 kmh 29.80 in1009.1 mb 0.00 in0.0 mm 0.00 in0.0 mm 0.00 in0.0 mm
11:00 PM 54.9°F12.7°C 53.2°F11.8°C 94% 11.0 mph W17.7 kmh W 20.4 mph32.8 kmh 29.80 in1009.1 mb 0.00 in0.0 mm 0.00 in0.0 mm 0.00 in0.0 mm
11:15 PM 54.9°F12.7°C 53.2°F11.8°C 94% 11.0 mph W17.7 kmh W 23.3 mph37.5 kmh 29.80 in1009.1 mb 0.05 in1.3 mm 0.20 in5.1 mm 0.05 in1.3 mm
11:30 PM 54.9°F12.7°C 53.2°F11.8°C 94% 9.6 mph W15.4 kmh W 21.1 mph34.0 kmh 29.77 in1008.1 mb 0.05 in1.3 mm 0.00 in0.0 mm 0.05 in1.3 mm
11:45 PM 54.9°F12.7°C 53.2°F11.8°C 94% 8.7 mph W14.0 kmh W 20.0 mph32.2 kmh 29.80 in1009.1 mb 0.05 in1.3 mm 0.00 in0.0 mm 0.05 in1.3 mm